createdAt,value
2017-08-30T00:00:07.041Z,0
2017-08-30T00:01:08.433Z,0
2017-08-30T00:02:09.828Z,0
2017-08-30T00:03:11.216Z,0
2017-08-30T00:04:12.614Z,0
2017-08-30T00:05:14.006Z,0
2017-08-30T00:06:15.401Z,0
2017-08-30T00:07:16.796Z,0
2017-08-30T00:08:18.189Z,0
2017-08-30T00:09:19.582Z,0
2017-08-30T00:10:20.973Z,0
2017-08-30T00:11:22.369Z,0
2017-08-30T00:12:23.762Z,0
2017-08-30T00:13:25.153Z,0
2017-08-30T00:14:26.550Z,0
2017-08-30T00:15:27.940Z,0
2017-08-30T00:16:29.334Z,0
2017-08-30T00:17:30.728Z,0
2017-08-30T00:18:32.122Z,0
2017-08-30T00:19:33.516Z,0
2017-08-30T00:20:34.910Z,0
2017-08-30T00:21:36.306Z,0
2017-08-30T00:22:37.696Z,0
2017-08-30T00:23:39.093Z,0
2017-08-30T00:24:40.482Z,0
2017-08-30T00:25:41.877Z,0
2017-08-30T00:26:43.272Z,0
2017-08-30T00:27:44.697Z,0
2017-08-30T00:28:46.059Z,0
2017-08-30T00:29:47.452Z,0
2017-08-30T00:30:48.846Z,0
2017-08-30T00:31:50.238Z,0
2017-08-30T00:32:51.631Z,0
2017-08-30T00:33:53.025Z,0
2017-08-30T00:34:54.419Z,0
2017-08-30T00:35:55.814Z,0
2017-08-30T00:36:57.208Z,0
2017-08-30T00:37:58.601Z,0
2017-08-30T00:38:59.998Z,0
2017-08-30T00:40:01.389Z,0
2017-08-30T00:41:02.783Z,0
2017-08-30T00:42:04.177Z,0
2017-08-30T00:43:05.575Z,0
2017-08-30T00:44:06.965Z,0
2017-08-30T00:45:08.360Z,0
2017-08-30T00:46:09.750Z,0
2017-08-30T00:47:11.143Z,0
2017-08-30T00:48:12.534Z,0
2017-08-30T00:49:13.927Z,0
2017-08-30T00:50:15.322Z,0
2017-08-30T00:51:16.717Z,0
2017-08-30T00:52:18.108Z,0
2017-08-30T00:53:19.500Z,0
2017-08-30T00:54:20.895Z,0
2017-08-30T00:55:22.286Z,0
2017-08-30T00:56:23.679Z,0
2017-08-30T00:57:25.084Z,0
2017-08-30T00:58:26.498Z,0
2017-08-30T00:59:27.890Z,0
2017-08-30T01:00:29.283Z,0
2017-08-30T01:01:30.677Z,0
2017-08-30T01:02:32.059Z,0
2017-08-30T01:03:33.423Z,0
2017-08-30T01:04:34.814Z,0
2017-08-30T01:05:36.207Z,0
2017-08-30T01:06:37.597Z,0
2017-08-30T01:07:38.990Z,0
2017-08-30T01:08:40.383Z,0
2017-08-30T01:09:41.775Z,0
2017-08-30T01:10:43.168Z,0
2017-08-30T01:11:44.564Z,0
2017-08-30T01:12:45.954Z,0
2017-08-30T01:13:47.346Z,0
2017-08-30T01:14:48.739Z,0
2017-08-30T01:15:50.131Z,0
2017-08-30T01:16:51.525Z,0
2017-08-30T01:17:52.916Z,0
2017-08-30T01:18:54.312Z,0
2017-08-30T01:19:55.702Z,0
2017-08-30T01:20:57.096Z,0
2017-08-30T01:21:58.489Z,0
2017-08-30T01:22:59.881Z,0
2017-08-30T01:24:01.292Z,0
2017-08-30T01:25:02.686Z,0
2017-08-30T01:26:04.081Z,0
2017-08-30T01:27:05.474Z,0
2017-08-30T01:28:06.864Z,0
2017-08-30T01:29:08.253Z,0
2017-08-30T01:30:09.646Z,0
2017-08-30T01:31:11.039Z,0
2017-08-30T01:32:12.437Z,0
2017-08-30T01:33:13.830Z,0
2017-08-30T01:34:15.226Z,0
2017-08-30T01:35:16.615Z,0
2017-08-30T01:36:18.006Z,0
2017-08-30T01:37:19.398Z,0
2017-08-30T01:38:20.789Z,0
2017-08-30T01:39:22.201Z,0
2017-08-30T01:40:23.585Z,0
2017-08-30T01:41:24.975Z,0
2017-08-30T01:42:26.367Z,0
2017-08-30T01:43:27.759Z,0
2017-08-30T01:44:29.151Z,0
2017-08-30T01:45:30.540Z,0
2017-08-30T01:46:31.935Z,0
2017-08-30T01:47:33.331Z,0
2017-08-30T01:48:34.723Z,0
2017-08-30T01:49:36.115Z,0
2017-08-30T01:50:37.507Z,0
2017-08-30T01:51:38.900Z,0
2017-08-30T01:52:40.291Z,0
2017-08-30T01:53:41.685Z,0
2017-08-30T01:54:43.080Z,0
2017-08-30T01:55:44.468Z,0
2017-08-30T01:56:45.863Z,0
2017-08-30T01:57:47.257Z,0
2017-08-30T01:58:48.648Z,0
2017-08-30T01:59:50.043Z,0
2017-08-30T02:00:51.439Z,0
2017-08-30T02:01:52.832Z,0
2017-08-30T02:02:54.225Z,0
2017-08-30T02:03:55.615Z,0
2017-08-30T02:04:57.007Z,0
2017-08-30T02:05:58.400Z,0
2017-08-30T02:06:59.795Z,0
2017-08-30T02:08:01.188Z,0
2017-08-30T02:09:02.580Z,0
2017-08-30T02:10:03.972Z,0
2017-08-30T02:11:05.365Z,0
2017-08-30T02:12:06.759Z,0
2017-08-30T02:13:08.151Z,0
2017-08-30T02:14:09.545Z,0
2017-08-30T02:15:10.937Z,0
2017-08-30T02:16:12.331Z,0
2017-08-30T02:17:13.721Z,0
2017-08-30T02:18:15.114Z,0
2017-08-30T02:19:16.505Z,0
2017-08-30T02:20:17.900Z,0
2017-08-30T02:21:19.295Z,0
2017-08-30T02:22:20.692Z,0
2017-08-30T02:23:22.080Z,0
2017-08-30T02:24:23.478Z,0
2017-08-30T02:25:24.887Z,0
2017-08-30T02:26:26.256Z,0
2017-08-30T02:27:27.651Z,0
2017-08-30T02:28:29.040Z,0
2017-08-30T02:29:30.436Z,0
2017-08-30T02:30:31.833Z,0
2017-08-30T02:31:33.221Z,0
2017-08-30T02:32:34.615Z,0
2017-08-30T02:33:36.003Z,0
2017-08-30T02:34:37.398Z,0
2017-08-30T02:35:38.791Z,0
2017-08-30T02:36:40.184Z,0
2017-08-30T02:37:41.582Z,0
2017-08-30T02:38:42.972Z,0
2017-08-30T02:39:44.367Z,0
2017-08-30T02:40:45.758Z,0
2017-08-30T02:41:47.150Z,0
2017-08-30T02:42:48.544Z,0
2017-08-30T02:43:49.938Z,0
2017-08-30T02:44:51.333Z,0
2017-08-30T02:45:52.722Z,0
2017-08-30T02:46:54.111Z,0
2017-08-30T02:47:55.505Z,0
2017-08-30T02:48:56.928Z,0
2017-08-30T02:49:58.320Z,0
2017-08-30T02:50:59.715Z,0
2017-08-30T02:52:01.106Z,0
2017-08-30T02:53:02.500Z,0
2017-08-30T02:54:03.894Z,0
2017-08-30T02:55:05.285Z,0
2017-08-30T02:56:06.677Z,0
2017-08-30T02:57:08.070Z,0
2017-08-30T02:58:09.464Z,0
2017-08-30T02:59:10.858Z,0
2017-08-30T03:00:12.253Z,0
2017-08-30T03:01:13.645Z,0
2017-08-30T03:02:15.043Z,0
2017-08-30T03:03:16.436Z,0
2017-08-30T03:04:17.831Z,0
2017-08-30T03:05:19.227Z,0
2017-08-30T03:06:20.623Z,0
2017-08-30T03:07:22.015Z,0
2017-08-30T03:08:23.428Z,0
2017-08-30T03:09:24.801Z,0
2017-08-30T03:10:26.191Z,0
2017-08-30T03:11:27.583Z,0
2017-08-30T03:12:28.981Z,0
2017-08-30T03:13:30.372Z,0
2017-08-30T03:14:31.761Z,0
2017-08-30T03:15:33.158Z,0
2017-08-30T03:16:34.543Z,0
2017-08-30T03:17:35.934Z,0
2017-08-30T03:18:37.329Z,0
2017-08-30T03:19:38.724Z,0
2017-08-30T03:20:40.119Z,0
2017-08-30T03:21:41.509Z,0
2017-08-30T03:22:42.901Z,0
2017-08-30T03:23:44.293Z,0
2017-08-30T03:24:45.685Z,0
2017-08-30T03:25:47.076Z,0
2017-08-30T03:26:48.469Z,0
2017-08-30T03:27:49.862Z,0
2017-08-30T03:28:51.255Z,0
2017-08-30T03:29:52.645Z,0
2017-08-30T03:30:54.065Z,0
2017-08-30T03:31:55.457Z,0
2017-08-30T03:32:56.852Z,0
2017-08-30T03:33:58.244Z,0
2017-08-30T03:34:59.639Z,0
2017-08-30T03:36:01.030Z,0
2017-08-30T03:37:02.427Z,0
2017-08-30T03:38:03.819Z,0
2017-08-30T03:39:05.212Z,0
2017-08-30T03:40:06.602Z,0
2017-08-30T03:41:07.994Z,0
2017-08-30T03:42:09.388Z,0
2017-08-30T03:43:10.776Z,0
2017-08-30T03:44:12.181Z,0
2017-08-30T03:45:13.577Z,0
2017-08-30T03:46:14.967Z,0
2017-08-30T03:47:16.360Z,0
2017-08-30T03:48:17.752Z,0
2017-08-30T03:49:19.148Z,0
2017-08-30T03:50:20.535Z,0
2017-08-30T03:51:21.931Z,0
2017-08-30T03:52:23.322Z,0
2017-08-30T03:53:24.715Z,0
2017-08-30T03:54:26.109Z,0
2017-08-30T03:55:27.506Z,0
2017-08-30T03:56:28.863Z,0
2017-08-30T03:57:30.252Z,0
2017-08-30T03:58:31.643Z,0
2017-08-30T03:59:33.034Z,0
2017-08-30T04:00:34.426Z,0
2017-08-30T04:01:35.818Z,0
2017-08-30T04:02:37.214Z,0
2017-08-30T04:03:38.609Z,0
2017-08-30T04:04:39.999Z,0
2017-08-30T04:05:41.390Z,0
2017-08-30T04:06:42.783Z,0
2017-08-30T04:07:44.177Z,0
2017-08-30T04:08:45.566Z,0
2017-08-30T04:09:46.963Z,0
2017-08-30T04:10:48.358Z,0
2017-08-30T04:11:49.748Z,0
2017-08-30T04:12:51.145Z,0
2017-08-30T04:13:52.537Z,0
2017-08-30T04:14:53.930Z,4
2017-08-30T04:15:55.335Z,0
2017-08-30T04:16:56.728Z,4
2017-08-30T04:17:58.121Z,0
2017-08-30T04:18:59.513Z,4
2017-08-30T04:20:00.904Z,4
2017-08-30T04:21:02.297Z,0
2017-08-30T04:22:03.690Z,4
2017-08-30T04:23:05.086Z,4
2017-08-30T04:24:06.479Z,4
2017-08-30T04:25:07.875Z,4
2017-08-30T04:26:09.308Z,4
2017-08-30T04:27:10.687Z,4
2017-08-30T04:28:12.078Z,8
2017-08-30T04:29:13.473Z,8
2017-08-30T04:30:14.866Z,12
2017-08-30T04:31:16.259Z,12
2017-08-30T04:32:17.656Z,12
2017-08-30T04:33:19.046Z,16
2017-08-30T04:34:20.440Z,16
2017-08-30T04:35:21.835Z,16
2017-08-30T04:36:23.229Z,16
2017-08-30T04:37:24.623Z,20
2017-08-30T04:38:26.017Z,20
2017-08-30T04:39:27.420Z,24
2017-08-30T04:40:28.805Z,20
2017-08-30T04:41:30.199Z,24
2017-08-30T04:42:31.592Z,24
2017-08-30T04:43:32.985Z,20
2017-08-30T04:44:34.380Z,24
2017-08-30T04:45:35.778Z,28
2017-08-30T04:46:37.174Z,32
2017-08-30T04:47:38.566Z,32
2017-08-30T04:48:39.960Z,36
2017-08-30T04:49:41.354Z,36
2017-08-30T04:50:42.746Z,40
2017-08-30T04:51:44.151Z,44
2017-08-30T04:52:45.547Z,52
2017-08-30T04:53:46.989Z,56
2017-08-30T04:54:48.386Z,60
2017-08-30T04:55:49.781Z,64
2017-08-30T04:56:51.176Z,68
2017-08-30T04:57:52.572Z,76
2017-08-30T04:58:53.961Z,76
2017-08-30T04:59:55.360Z,84
2017-08-30T05:00:56.755Z,92
2017-08-30T05:01:58.146Z,96
2017-08-30T05:02:59.540Z,100
2017-08-30T05:04:00.934Z,108
2017-08-30T05:05:02.331Z,112
2017-08-30T05:06:03.724Z,120
2017-08-30T05:07:05.119Z,132
2017-08-30T05:08:06.518Z,144
2017-08-30T05:09:07.916Z,156
2017-08-30T05:10:09.310Z,176
2017-08-30T05:11:10.702Z,192
2017-08-30T05:12:12.100Z,208
2017-08-30T05:13:13.497Z,216
2017-08-30T05:14:14.913Z,228
2017-08-30T05:15:16.292Z,240
2017-08-30T05:16:17.684Z,256
2017-08-30T05:17:19.078Z,276
2017-08-30T05:18:20.476Z,292
2017-08-30T05:19:21.871Z,312
2017-08-30T05:20:23.267Z,320
2017-08-30T05:21:24.662Z,328
2017-08-30T05:22:26.061Z,344
2017-08-30T05:23:27.460Z,348
2017-08-30T05:24:28.850Z,356
2017-08-30T05:25:30.244Z,364
2017-08-30T05:26:31.642Z,376
2017-08-30T05:27:33.038Z,392
2017-08-30T05:28:34.435Z,416
2017-08-30T05:29:35.830Z,440
2017-08-30T05:30:37.225Z,464
2017-08-30T05:31:38.623Z,492
2017-08-30T05:32:40.017Z,516
2017-08-30T05:33:41.411Z,540
2017-08-30T05:34:42.810Z,564
2017-08-30T05:35:44.209Z,588
2017-08-30T05:36:45.608Z,604
2017-08-30T05:37:47.003Z,612
2017-08-30T05:38:48.399Z,612
2017-08-30T05:39:49.803Z,620
2017-08-30T05:40:51.236Z,644
2017-08-30T05:41:52.638Z,672
2017-08-30T05:42:54.033Z,700
2017-08-30T05:43:55.432Z,740
2017-08-30T05:44:56.824Z,784
2017-08-30T05:45:58.220Z,840
2017-08-30T05:46:59.616Z,900
2017-08-30T05:48:01.015Z,956
2017-08-30T05:49:02.458Z,1000
2017-08-30T05:50:03.874Z,1040
2017-08-30T05:51:05.273Z,1092
2017-08-30T05:52:06.666Z,1132
2017-08-30T05:53:08.063Z,1136
2017-08-30T05:54:10.130Z,1132
2017-08-30T05:55:11.527Z,1132
2017-08-30T05:56:12.923Z,1108
2017-08-30T05:57:14.319Z,1064
2017-08-30T05:58:15.723Z,1028
2017-08-30T05:59:17.123Z,1024
2017-08-30T06:00:18.519Z,1020
2017-08-30T06:01:19.917Z,1012
2017-08-30T06:02:21.316Z,1012
2017-08-30T06:03:22.711Z,996
2017-08-30T06:04:24.108Z,980
2017-08-30T06:05:25.508Z,968
2017-08-30T06:06:26.902Z,968
2017-08-30T06:07:28.295Z,976
2017-08-30T06:08:29.693Z,1020
2017-08-30T06:09:31.089Z,1064
2017-08-30T06:10:32.487Z,1108
2017-08-30T06:11:33.886Z,1116
2017-08-30T06:12:35.287Z,1128
2017-08-30T06:13:36.679Z,1108
2017-08-30T06:14:38.080Z,1092
2017-08-30T06:15:39.474Z,1068
2017-08-30T06:16:40.871Z,1044
2017-08-30T06:17:42.270Z,1028
2017-08-30T06:18:43.674Z,1024
2017-08-30T06:19:45.065Z,1028
2017-08-30T06:20:46.462Z,1036
2017-08-30T06:21:47.860Z,1056
2017-08-30T06:22:49.257Z,1084
2017-08-30T06:23:50.653Z,1108
2017-08-30T06:24:52.049Z,1152
2017-08-30T06:25:53.446Z,1176
2017-08-30T06:26:54.851Z,1188
2017-08-30T06:27:56.243Z,1176
2017-08-30T06:28:57.640Z,1152
2017-08-30T06:29:59.040Z,1120
2017-08-30T06:31:00.438Z,1108
2017-08-30T06:32:01.836Z,1120
2017-08-30T06:33:03.237Z,1132
2017-08-30T06:34:04.632Z,1164
2017-08-30T06:35:06.030Z,1208
2017-08-30T06:36:07.430Z,1248
2017-08-30T06:37:08.826Z,1272
2017-08-30T06:38:10.234Z,1288
2017-08-30T06:39:11.627Z,1300
2017-08-30T06:40:13.022Z,1308
2017-08-30T06:41:14.420Z,1316
2017-08-30T06:42:15.815Z,1316
2017-08-30T06:43:17.217Z,1316
2017-08-30T06:44:18.609Z,1312
2017-08-30T06:45:20.009Z,1268
2017-08-30T06:46:21.411Z,1184
2017-08-30T06:47:22.807Z,1064
2017-08-30T06:48:24.206Z,876
2017-08-30T06:49:25.601Z,684
2017-08-30T06:50:26.997Z,592
2017-08-30T06:51:28.391Z,548
2017-08-30T06:52:29.789Z,576
2017-08-30T06:53:31.185Z,652
2017-08-30T06:54:32.582Z,740
2017-08-30T06:55:33.980Z,840
2017-08-30T06:56:35.375Z,892
2017-08-30T06:57:36.777Z,892
2017-08-30T06:58:38.166Z,832
2017-08-30T06:59:39.566Z,808
2017-08-30T07:00:40.964Z,884
2017-08-30T07:01:42.362Z,1004
2017-08-30T07:02:43.762Z,1140
2017-08-30T07:03:45.182Z,1260
2017-08-30T07:04:46.579Z,1288
2017-08-30T07:05:48.017Z,1352
2017-08-30T07:06:49.413Z,1296
2017-08-30T07:07:50.809Z,1324
2017-08-30T07:08:52.208Z,1448
2017-08-30T07:09:53.604Z,1516
2017-08-30T07:10:55.010Z,1768
2017-08-30T07:11:56.406Z,2068
2017-08-30T07:12:57.802Z,2280
2017-08-30T07:13:59.198Z,2456
2017-08-30T07:15:00.600Z,2600
2017-08-30T07:16:01.999Z,2672
2017-08-30T07:17:03.397Z,2688
2017-08-30T07:18:04.795Z,2664
2017-08-30T07:19:06.193Z,2688
2017-08-30T07:20:07.592Z,2740
2017-08-30T07:21:08.993Z,2740
2017-08-30T07:22:10.386Z,2608
2017-08-30T07:23:11.791Z,2428
2017-08-30T07:24:13.192Z,2260
2017-08-30T07:25:14.589Z,2052
2017-08-30T07:26:15.984Z,1828
2017-08-30T07:27:17.382Z,1652
2017-08-30T07:28:18.780Z,1480
2017-08-30T07:29:20.175Z,1312
2017-08-30T07:30:21.570Z,1180
2017-08-30T07:31:22.971Z,1100
2017-08-30T07:32:24.367Z,1056
2017-08-30T07:33:25.763Z,1036
2017-08-30T07:34:27.160Z,1020
2017-08-30T07:35:28.557Z,1016
2017-08-30T07:36:29.956Z,1016
2017-08-30T07:37:31.351Z,992
2017-08-30T07:38:32.750Z,964
2017-08-30T07:39:34.145Z,948
2017-08-30T07:40:35.538Z,956
2017-08-30T07:41:36.935Z,1004
2017-08-30T07:42:38.333Z,1084
2017-08-30T07:43:39.732Z,1184
2017-08-30T07:44:41.125Z,1208
2017-08-30T07:45:42.527Z,1172
2017-08-30T07:46:43.921Z,1096
2017-08-30T07:47:45.317Z,1004
2017-08-30T07:48:46.720Z,940
2017-08-30T07:49:48.115Z,920
2017-08-30T07:50:49.511Z,900
2017-08-30T07:51:50.911Z,880
2017-08-30T07:52:52.318Z,884
2017-08-30T07:53:53.738Z,892
2017-08-30T07:54:55.135Z,864
2017-08-30T07:55:56.531Z,828
2017-08-30T07:56:57.929Z,848
2017-08-30T07:57:59.324Z,872
2017-08-30T07:59:00.723Z,888
2017-08-30T08:00:02.124Z,900
2017-08-30T08:01:03.520Z,924
2017-08-30T08:02:04.913Z,952
2017-08-30T08:03:06.310Z,956
2017-08-30T08:04:07.706Z,936
2017-08-30T08:05:09.101Z,892
2017-08-30T08:06:10.501Z,884
2017-08-30T08:07:11.896Z,904
2017-08-30T08:08:13.293Z,896
2017-08-30T08:09:14.686Z,844
2017-08-30T08:10:16.084Z,808
2017-08-30T08:11:17.483Z,828
2017-08-30T08:12:18.878Z,840
2017-08-30T08:13:20.274Z,812
2017-08-30T08:14:21.675Z,812
2017-08-30T08:15:23.070Z,784
2017-08-30T08:16:24.466Z,784
2017-08-30T08:17:25.863Z,828
2017-08-30T08:18:27.259Z,864
2017-08-30T08:19:28.658Z,900
2017-08-30T08:20:30.053Z,976
2017-08-30T08:21:31.455Z,1032
2017-08-30T08:22:32.852Z,1064
2017-08-30T08:23:34.251Z,1128
2017-08-30T08:24:35.645Z,1348
2017-08-30T08:25:37.043Z,1548
2017-08-30T08:26:38.440Z,1660
2017-08-30T08:27:39.840Z,1812
2017-08-30T08:28:41.239Z,1980
2017-08-30T08:29:42.638Z,2096
2017-08-30T08:30:44.066Z,2224
2017-08-30T08:31:45.467Z,2392
2017-08-30T08:32:46.865Z,2616
2017-08-30T08:33:48.281Z,2824
2017-08-30T08:34:49.674Z,2908
2017-08-30T08:35:51.077Z,2936
2017-08-30T08:36:52.474Z,2956
2017-08-30T08:37:53.873Z,2980
2017-08-30T08:38:55.269Z,3064
2017-08-30T08:39:56.671Z,3132
2017-08-30T08:40:58.068Z,3208
2017-08-30T08:41:59.468Z,3232
2017-08-30T08:43:00.871Z,3096
2017-08-30T08:44:02.265Z,2932
2017-08-30T08:45:03.664Z,2844
2017-08-30T08:46:05.065Z,2800
2017-08-30T08:47:06.467Z,2852
2017-08-30T08:48:07.868Z,2320
2017-08-30T08:49:09.267Z,2044
2017-08-30T08:50:10.663Z,1884
2017-08-30T08:51:12.060Z,1916
2017-08-30T08:52:13.458Z,1920
2017-08-30T08:53:14.853Z,1964
2017-08-30T08:54:16.251Z,2048
2017-08-30T08:55:17.650Z,2088
2017-08-30T08:56:19.049Z,1872
2017-08-30T08:57:20.448Z,1624
2017-08-30T08:58:21.843Z,1444
2017-08-30T08:59:23.237Z,1300
2017-08-30T09:00:24.637Z,1196
2017-08-30T09:01:26.033Z,1232
2017-08-30T09:02:27.435Z,1360
2017-08-30T09:03:28.832Z,1488
2017-08-30T09:04:30.235Z,1576
2017-08-30T09:05:31.627Z,1636
2017-08-30T09:06:33.024Z,1696
2017-08-30T09:07:34.422Z,1748
2017-08-30T09:08:35.822Z,1876
2017-08-30T09:09:37.219Z,1792
2017-08-30T09:10:38.618Z,1728
2017-08-30T09:11:40.014Z,1644
2017-08-30T09:12:41.411Z,1760
2017-08-30T09:13:42.810Z,2196
2017-08-30T09:14:44.217Z,3176
2017-08-30T09:15:45.638Z,4148
2017-08-30T09:16:47.038Z,4764
2017-08-30T09:17:48.436Z,5044
2017-08-30T09:18:49.837Z,5328
2017-08-30T09:19:51.235Z,5984
2017-08-30T09:20:52.646Z,5668
2017-08-30T09:21:54.046Z,4672
2017-08-30T09:22:55.444Z,4560
2017-08-30T09:23:56.844Z,4748
2017-08-30T09:24:58.243Z,5020
2017-08-30T09:25:59.645Z,5716
2017-08-30T09:27:01.043Z,5948
2017-08-30T09:28:02.442Z,4712
2017-08-30T09:29:03.839Z,4164
2017-08-30T09:30:05.239Z,3944
2017-08-30T09:31:06.637Z,3268
2017-08-30T09:32:08.038Z,2908
2017-08-30T09:33:09.440Z,2752
2017-08-30T09:34:10.838Z,2712
2017-08-30T09:35:12.235Z,2788
2017-08-30T09:36:13.632Z,2972
2017-08-30T09:37:15.037Z,3412
2017-08-30T09:38:16.435Z,4008
2017-08-30T09:39:17.833Z,4744
2017-08-30T09:40:19.237Z,5392
2017-08-30T09:41:20.633Z,6228
2017-08-30T09:42:22.037Z,8436
2017-08-30T09:43:23.434Z,9956
2017-08-30T09:44:24.837Z,10044
2017-08-30T09:45:26.235Z,10196
2017-08-30T09:46:27.636Z,10416
2017-08-30T09:47:29.037Z,10048
2017-08-30T09:48:30.438Z,7536
2017-08-30T09:49:31.837Z,10272
2017-08-30T09:50:33.236Z,10140
2017-08-30T09:51:34.638Z,10100
2017-08-30T09:52:36.038Z,10300
2017-08-30T09:53:37.441Z,10564
2017-08-30T09:54:38.842Z,10036
2017-08-30T09:55:40.315Z,10392
2017-08-30T09:56:41.722Z,10400
2017-08-30T09:57:43.115Z,10164
2017-08-30T09:58:44.513Z,9808
2017-08-30T09:59:45.916Z,9568
2017-08-30T10:00:47.318Z,9376
2017-08-30T10:01:48.720Z,9540
2017-08-30T10:02:50.117Z,9772
2017-08-30T10:03:51.517Z,9916
2017-08-30T10:04:52.917Z,10256
2017-08-30T10:05:54.320Z,9888
2017-08-30T10:06:55.720Z,9504
2017-08-30T10:07:57.120Z,8856
2017-08-30T10:08:58.521Z,9176
2017-08-30T10:09:59.921Z,9196
2017-08-30T10:11:01.320Z,8432
2017-08-30T10:12:02.720Z,8124
2017-08-30T10:13:04.121Z,8340
2017-08-30T10:14:05.524Z,8380
2017-08-30T10:15:06.924Z,8396
2017-08-30T10:16:08.326Z,8908
2017-08-30T10:17:09.725Z,9040
2017-08-30T10:18:11.128Z,9032
2017-08-30T10:19:12.537Z,9452
2017-08-30T10:20:13.937Z,9612
2017-08-30T10:21:15.335Z,9900
2017-08-30T10:22:16.740Z,10240
2017-08-30T10:23:18.142Z,9968
2017-08-30T10:24:19.541Z,10304
2017-08-30T10:25:20.944Z,10116
2017-08-30T10:26:22.345Z,9924
2017-08-30T10:27:23.746Z,9612
2017-08-30T10:28:25.147Z,9640
2017-08-30T10:29:26.551Z,10072
2017-08-30T10:30:27.956Z,10148
2017-08-30T10:31:29.354Z,10148
2017-08-30T10:32:30.758Z,10020
2017-08-30T10:33:32.165Z,11288
2017-08-30T10:34:33.557Z,12484
2017-08-30T10:35:34.961Z,12356
2017-08-30T10:36:36.363Z,12484
2017-08-30T10:37:37.784Z,12688
2017-08-30T10:38:39.210Z,13792
2017-08-30T10:39:40.578Z,14752
2017-08-30T10:40:41.977Z,16032
2017-08-30T10:41:43.382Z,16480
2017-08-30T10:42:44.789Z,16672
2017-08-30T10:43:46.192Z,16032
2017-08-30T10:44:47.595Z,15284
2017-08-30T10:45:48.997Z,15204
2017-08-30T10:46:50.402Z,13776
2017-08-30T10:47:51.804Z,14540
2017-08-30T10:48:53.208Z,14212
2017-08-30T10:49:54.610Z,15380
2017-08-30T10:50:56.017Z,14796
2017-08-30T10:51:57.420Z,16000
2017-08-30T10:52:58.822Z,14676
2017-08-30T10:54:00.225Z,16640
2017-08-30T10:55:01.631Z,16192
2017-08-30T10:56:03.030Z,12252
2017-08-30T10:57:04.436Z,13968
2017-08-30T10:58:05.844Z,17120
2017-08-30T10:59:07.248Z,19904
2017-08-30T11:00:08.651Z,19328
2017-08-30T11:01:10.053Z,19840
2017-08-30T11:02:11.456Z,19584
2017-08-30T11:03:12.858Z,18944
2017-08-30T11:04:14.263Z,18976
2017-08-30T11:05:15.669Z,18496
2017-08-30T11:06:17.071Z,19584
2017-08-30T11:07:18.474Z,19424
2017-08-30T11:08:19.877Z,19008
2017-08-30T11:09:21.280Z,17472
2017-08-30T11:10:22.683Z,17504
2017-08-30T11:11:24.087Z,17024
2017-08-30T11:12:25.495Z,15172
2017-08-30T11:13:26.903Z,14008
2017-08-30T11:14:28.303Z,18080
2017-08-30T11:15:29.707Z,17408
2017-08-30T11:16:31.113Z,19360
2017-08-30T11:17:32.520Z,15608
2017-08-30T11:18:33.929Z,18304
2017-08-30T11:19:35.341Z,17344
2017-08-30T11:20:36.745Z,9708
2017-08-30T11:21:38.145Z,9856
2017-08-30T11:22:39.549Z,9532
2017-08-30T11:23:40.951Z,9520
2017-08-30T11:24:42.354Z,9068
2017-08-30T11:25:43.759Z,9604
2017-08-30T11:26:45.161Z,8544
2017-08-30T11:27:46.569Z,9052
2017-08-30T11:28:47.972Z,10620
2017-08-30T11:29:49.375Z,14896
2017-08-30T11:30:50.779Z,14440
2017-08-30T11:31:52.185Z,14252
2017-08-30T11:32:53.587Z,14924
2017-08-30T11:33:54.993Z,15904
2017-08-30T11:34:56.400Z,16512
2017-08-30T11:35:57.801Z,16032
2017-08-30T11:36:59.205Z,16544
2017-08-30T11:38:00.611Z,15560
2017-08-30T11:39:02.026Z,15160
2017-08-30T11:40:03.421Z,14880
2017-08-30T11:41:04.825Z,13364
2017-08-30T11:42:06.229Z,13140
2017-08-30T11:43:07.630Z,13476
2017-08-30T11:44:09.035Z,14320
2017-08-30T11:45:10.436Z,14620
2017-08-30T11:46:11.839Z,14512
2017-08-30T11:47:13.245Z,12972
2017-08-30T11:48:14.654Z,12964
2017-08-30T11:49:16.059Z,13384
2017-08-30T11:50:17.463Z,13112
2017-08-30T11:51:18.869Z,12000
2017-08-30T11:52:20.272Z,10872
2017-08-30T11:53:21.678Z,14040
2017-08-30T11:54:23.081Z,13760
2017-08-30T11:55:24.487Z,14840
2017-08-30T11:56:25.895Z,14188
2017-08-30T11:57:27.297Z,13376
2017-08-30T11:58:28.700Z,10720
2017-08-30T11:59:30.105Z,8000
2017-08-30T12:00:31.507Z,6804
2017-08-30T12:01:32.912Z,5388
2017-08-30T12:02:34.316Z,5004
2017-08-30T12:03:35.719Z,4684
2017-08-30T12:04:37.121Z,4584
2017-08-30T12:05:38.525Z,4512
2017-08-30T12:06:39.929Z,4516
2017-08-30T12:07:41.331Z,4144
2017-08-30T12:08:42.736Z,3700
2017-08-30T12:09:44.142Z,3568
2017-08-30T12:10:45.545Z,3592
2017-08-30T12:11:46.946Z,3668
2017-08-30T12:12:48.349Z,3524
2017-08-30T12:13:49.750Z,3160
2017-08-30T12:14:51.160Z,2804
2017-08-30T12:15:52.559Z,2620
2017-08-30T12:16:53.961Z,2576
2017-08-30T12:17:55.364Z,2644
2017-08-30T12:18:56.763Z,2704
2017-08-30T12:19:58.169Z,2688
2017-08-30T12:20:59.570Z,2552
2017-08-30T12:22:00.972Z,2336
2017-08-30T12:23:02.383Z,2204
2017-08-30T12:24:03.781Z,2184
2017-08-30T12:25:05.184Z,2256
2017-08-30T12:26:06.585Z,2156
2017-08-30T12:27:07.985Z,2140
2017-08-30T12:28:09.389Z,2352
2017-08-30T12:29:10.789Z,2324
2017-08-30T12:30:12.190Z,2160
2017-08-30T12:31:13.592Z,2160
2017-08-30T12:32:14.995Z,2168
2017-08-30T12:33:16.398Z,2192
2017-08-30T12:34:17.795Z,2248
2017-08-30T12:35:19.193Z,2196
2017-08-30T12:36:20.595Z,2088
2017-08-30T12:37:21.994Z,2016
2017-08-30T12:38:23.394Z,1968
2017-08-30T12:39:24.802Z,1996
2017-08-30T12:40:26.201Z,2216
2017-08-30T12:41:27.609Z,2308
2017-08-30T12:42:29.010Z,2372
2017-08-30T12:43:30.412Z,2412
2017-08-30T12:44:31.812Z,2724
2017-08-30T12:45:33.212Z,3344
2017-08-30T12:46:34.615Z,3328
2017-08-30T12:47:36.012Z,3000
2017-08-30T12:48:37.414Z,2992
2017-08-30T12:49:38.810Z,2964
2017-08-30T12:50:40.212Z,3080
2017-08-30T12:51:41.614Z,3116
2017-08-30T12:52:43.014Z,3136
2017-08-30T12:53:44.414Z,3236
2017-08-30T12:54:45.812Z,3516
2017-08-30T12:55:47.215Z,3568
2017-08-30T12:56:48.615Z,4080
2017-08-30T12:57:50.015Z,5076
2017-08-30T12:58:51.419Z,5588
2017-08-30T12:59:52.822Z,5856
2017-08-30T13:00:54.224Z,5984
2017-08-30T13:01:55.622Z,6176
2017-08-30T13:02:57.025Z,6424
2017-08-30T13:03:58.420Z,6052
2017-08-30T13:04:59.820Z,5364
2017-08-30T13:06:01.221Z,4884
2017-08-30T13:07:02.624Z,4388
2017-08-30T13:08:04.025Z,3796
2017-08-30T13:09:05.424Z,3672
2017-08-30T13:10:06.823Z,3512
2017-08-30T13:11:08.221Z,3416
2017-08-30T13:12:09.625Z,3156
2017-08-30T13:13:11.027Z,3080
2017-08-30T13:14:12.427Z,2984
2017-08-30T13:15:13.833Z,3012
2017-08-30T13:16:15.235Z,3232
2017-08-30T13:17:16.636Z,3092
2017-08-30T13:18:18.035Z,2736
2017-08-30T13:19:19.436Z,2408
2017-08-30T13:20:20.835Z,2176
2017-08-30T13:21:22.239Z,1792
2017-08-30T13:22:23.640Z,1604
2017-08-30T13:23:25.046Z,1660
2017-08-30T13:24:26.454Z,1804
2017-08-30T13:25:27.858Z,2104
2017-08-30T13:26:29.260Z,2228
2017-08-30T13:27:30.666Z,2332
2017-08-30T13:28:32.073Z,2632
2017-08-30T13:29:33.470Z,2848
2017-08-30T13:30:34.869Z,2908
2017-08-30T13:31:36.270Z,2836
2017-08-30T13:32:37.669Z,2804
2017-08-30T13:33:39.073Z,2816
2017-08-30T13:34:40.474Z,2856
2017-08-30T13:35:41.875Z,2884
2017-08-30T13:36:43.277Z,3048
2017-08-30T13:37:44.677Z,3524
2017-08-30T13:38:46.074Z,3516
2017-08-30T13:39:47.474Z,3188
2017-08-30T13:40:48.876Z,3364
2017-08-30T13:41:50.276Z,3216
2017-08-30T13:42:51.675Z,2956
2017-08-30T13:43:53.079Z,2800
2017-08-30T13:44:54.476Z,2512
2017-08-30T13:45:55.877Z,2288
2017-08-30T13:46:57.278Z,2400
2017-08-30T13:47:58.685Z,2808
2017-08-30T13:49:00.078Z,3188
2017-08-30T13:50:01.480Z,3332
2017-08-30T13:51:02.881Z,3236
2017-08-30T13:52:04.282Z,3276
2017-08-30T13:53:05.682Z,3728
2017-08-30T13:54:07.082Z,3608
2017-08-30T13:55:08.484Z,3216
2017-08-30T13:56:09.890Z,2752
2017-08-30T13:57:11.290Z,2532
2017-08-30T13:58:12.692Z,2428
2017-08-30T13:59:14.090Z,2332
2017-08-30T14:00:15.491Z,2328
2017-08-30T14:01:16.891Z,2424
2017-08-30T14:02:18.293Z,2440
2017-08-30T14:03:19.693Z,2476
2017-08-30T14:04:21.094Z,2356
2017-08-30T14:05:22.496Z,2208
2017-08-30T14:06:23.901Z,2040